Time;durP1;ratioP1;P1;durP2;ratioP2;P2;SDS_P1;SDS_P2;PMS_P1;PMS_P2;Temp;Humidity;BMP_temperature;BMP_pressure;BME280_temperature;BME280_humidity;BME280_pressure;Samples;Min_cycle;Max_cycle;Signal;HPM_P1;HPM_P2
2022/01/01 00:02:20;;;;;;;18.20;8.43;;;12.20;99.90;;;;;;4975670;28;20216;-89
2022/01/01 00:04:47;;;;;;;9.83;5.37;;;12.20;99.90;;;;;;4977625;28;21297;-87
2022/01/01 00:07:14;;;;;;;12.00;5.83;;;12.20;99.90;;;;;;4958942;28;20219;-87
2022/01/01 00:09:41;;;;;;;15.43;4.37;;;12.20;99.90;;;;;;4958577;28;20569;-88
2022/01/01 00:12:07;;;;;;;14.47;6.87;;;12.30;99.90;;;;;;4973596;28;20227;-89
2022/01/01 00:14:34;;;;;;;9.33;4.13;;;12.30;99.90;;;;;;4973928;28;20236;-88
2022/01/01 00:17:00;;;;;;;3.60;2.57;;;12.20;99.90;;;;;;4972364;28;20196;-89
2022/01/01 00:19:26;;;;;;;6.93;3.00;;;12.20;99.90;;;;;;4940184;28;20203;-88
2022/01/01 00:21:51;;;;;;;14.83;5.00;;;12.20;99.90;;;;;;4942443;28;20693;-88
2022/01/01 00:24:17;;;;;;;6.67;3.60;;;12.20;99.90;;;;;;4958644;28;20271;-89
2022/01/01 00:26:43;;;;;;;10.53;4.23;;;12.20;99.90;;;;;;4950904;28;20826;-88
2022/01/01 00:29:09;;;;;;;5.40;3.33;;;12.20;99.90;;;;;;4972975;28;20199;-86
2022/01/01 00:31:35;;;;;;;6.50;3.17;;;12.30;99.90;;;;;;4957686;28;20199;-87
2022/01/01 00:34:01;;;;;;;9.53;3.23;;;12.20;99.90;;;;;;4972894;28;21398;-88
2022/01/01 00:36:27;;;;;;;7.97;2.60;;;12.20;99.90;;;;;;4972889;28;20243;-87
2022/01/01 00:38:52;;;;;;;10.43;2.60;;;12.20;99.90;;;;;;4987373;28;20228;-86
2022/01/01 00:41:18;;;;;;;11.13;3.60;;;12.10;99.90;;;;;;4956123;28;20278;-87
2022/01/01 00:43:44;;;;;;;14.60;3.70;;;12.10;99.90;;;;;;5004384;28;20720;-86
2022/01/01 00:46:10;;;;;;;9.90;2.93;;;12.10;99.90;;;;;;4970713;28;20266;-86
2022/01/01 00:48:36;;;;;;;12.77;3.63;;;12.10;99.90;;;;;;4971402;28;20231;-86
2022/01/01 00:51:02;;;;;;;9.60;3.57;;;12.10;99.90;;;;;;4970166;28;20217;-86
2022/01/01 00:53:27;;;;;;;17.43;3.60;;;12.10;99.90;;;;;;4988001;28;20888;-86
2022/01/01 00:55:53;;;;;;;14.30;3.70;;;12.10;99.90;;;;;;4971837;28;20211;-86
2022/01/01 00:58:19;;;;;;;3.97;2.87;;;12.10;99.90;;;;;;4971530;28;20221;-86
2022/01/01 01:00:45;;;;;;;14.17;4.00;;;12.00;99.90;;;;;;4985677;28;20248;-86
2022/01/01 01:03:13;;;;;;;13.10;3.63;;;12.00;99.90;;;;;;4986237;28;20768;-87
2022/01/01 01:05:39;;;;;;;8.70;4.83;;;11.90;99.90;;;;;;5003904;28;20216;-87
2022/01/01 01:08:07;;;;;;;16.00;5.90;;;11.80;99.90;;;;;;4987413;28;20196;-87
2022/01/01 01:10:33;;;;;;;8.67;5.77;;;11.80;99.90;;;;;;5004009;28;20683;-86
2022/01/01 01:12:59;;;;;;;14.50;7.07;;;11.80;99.90;;;;;;4970834;28;20220;-86
2022/01/01 01:15:25;;;;;;;16.73;6.00;;;11.80;99.90;;;;;;4955476;28;20220;-86
2022/01/01 01:17:52;;;;;;;12.83;6.67;;;11.70;99.90;;;;;;4954983;28;20631;-87
2022/01/01 01:20:20;;;;;;;23.90;11.17;;;11.70;99.90;;;;;;4971245;28;20254;-88
2022/01/01 01:22:46;;;;;;;16.53;9.40;;;11.70;99.90;;;;;;4972282;28;20191;-86
2022/01/01 01:25:12;;;;;;;12.10;7.23;;;11.70;99.90;;;;;;5003484;28;20216;-87
2022/01/01 01:27:38;;;;;;;14.90;7.47;;;11.60;99.90;;;;;;4954820;28;20239;-86
2022/01/01 01:30:08;;;;;;;11.57;4.93;;;11.60;99.90;;;;;;4969962;28;20223;-87
2022/01/01 01:32:35;;;;;;;14.17;7.40;;;11.60;99.90;;;;;;4989942;28;20720;-86
2022/01/01 01:35:01;;;;;;;19.67;8.03;;;11.50;99.90;;;;;;4975061;28;20299;-87
2022/01/01 01:37:28;;;;;;;14.00;8.27;;;11.50;99.90;;;;;;4975648;28;20772;-87
2022/01/01 01:39:55;;;;;;;18.10;7.63;;;11.40;99.90;;;;;;4959401;28;20704;-86
2022/01/01 01:42:23;;;;;;;11.33;6.67;;;11.40;99.90;;;;;;4991897;28;20227;-87
2022/01/01 01:44:52;;;;;;;16.17;7.53;;;11.40;99.90;;;;;;4990517;28;20224;-87
2022/01/01 01:47:27;;;;;;;14.43;6.90;;;11.40;99.90;;;;;;4974741;28;20219;-86
2022/01/01 01:49:53;;;;;;;9.03;6.23;;;11.30;99.90;;;;;;4963101;28;20184;-87
2022/01/01 01:52:19;;;;;;;20.03;6.73;;;11.30;99.90;;;;;;4975638;28;20222;-86
2022/01/01 01:54:46;;;;;;;14.67;5.77;;;11.40;99.90;;;;;;4990167;28;20677;-91
2022/01/01 01:57:13;;;;;;;28.23;5.87;;;11.30;99.90;;;;;;4991689;28;20984;-86
2022/01/01 01:59:40;;;;;;;16.40;4.30;;;11.30;99.90;;;;;;4990592;28;20222;-86
2022/01/01 02:02:07;;;;;;;11.60;5.20;;;11.30;99.90;;;;;;4990469;28;20184;-90
2022/01/01 02:04:33;;;;;;;4.23;2.40;;;11.30;99.90;;;;;;4974082;28;20559;-86
2022/01/01 02:06:59;;;;;;;11.97;4.47;;;11.40;99.90;;;;;;4958578;28;20196;-86
2022/01/01 02:09:25;;;;;;;2.53;2.20;;;11.40;99.90;;;;;;4972671;28;20215;-88
2022/01/01 02:11:54;;;;;;;12.43;3.43;;;11.40;99.90;;;;;;4958527;28;20234;-86
2022/01/01 02:14:50;;;;;;;4.47;3.40;;;11.50;99.90;;;;;;4989820;28;20552;-86
2022/01/01 02:17:16;;;;;;;8.13;3.67;;;11.50;99.90;;;;;;4977518;28;21305;-86
2022/01/01 02:19:55;;;;;;;9.93;4.23;;;11.50;99.90;;;;;;4959321;28;20188;-86
2022/01/01 02:22:22;;;;;;;4.67;4.27;;;11.50;99.90;;;;;;4974603;28;20218;-87
2022/01/01 02:24:48;;;;;;;9.80;4.40;;;11.50;99.90;;;;;;4974340;28;20578;-87
2022/01/01 02:27:14;;;;;;;11.10;3.60;;;11.50;99.90;;;;;;4989956;28;20243;-90
2022/01/01 02:29:41;;;;;;;10.50;3.87;;;11.50;99.90;;;;;;4958376;28;20251;-86
2022/01/01 02:32:12;;;;;;;10.20;3.43;;;11.50;99.90;;;;;;4974130;28;20189;-85
2022/01/01 02:34:38;;;;;;;8.17;4.70;;;11.50;99.90;;;;;;4989408;28;20211;-86
2022/01/01 02:37:04;;;;;;;12.17;4.00;;;11.60;99.90;;;;;;4974047;28;20668;-85
2022/01/01 02:39:30;;;;;;;12.40;2.90;;;11.50;99.90;;;;;;4957816;28;20212;-90
2022/01/01 02:41:57;;;;;;;9.10;4.57;;;11.60;99.90;;;;;;4972809;28;20223;-86
2022/01/01 02:44:25;;;;;;;13.97;3.87;;;11.60;99.90;;;;;;4972296;28;20307;-86
2022/01/01 02:46:57;;;;;;;11.90;4.17;;;11.60;99.90;;;;;;4991608;28;20187;-86
2022/01/01 02:49:23;;;;;;;5.20;3.43;;;11.60;99.90;;;;;;4972725;28;20208;-86
2022/01/01 02:51:50;;;;;;;12.50;2.93;;;11.60;99.90;;;;;;4973749;28;20203;-87
2022/01/01 02:54:15;;;;;;;11.70;3.93;;;11.60;99.90;;;;;;4957591;28;20208;-85
2022/01/01 02:56:41;;;;;;;12.80;4.63;;;11.60;99.90;;;;;;4974548;28;20208;-85
2022/01/01 02:59:07;;;;;;;4.47;2.00;;;11.60;99.90;;;;;;4956523;28;20195;-89
2022/01/01 03:01:33;;;;;;;15.33;4.27;;;11.60;99.90;;;;;;4974369;28;20467;-87
2022/01/01 03:03:59;;;;;;;13.87;4.60;;;11.70;99.90;;;;;;4973450;28;20817;-86
2022/01/01 03:06:27;;;;;;;20.23;4.30;;;11.70;99.90;;;;;;4971925;28;20227;-86
2022/01/01 03:08:54;;;;;;;10.17;3.90;;;11.70;99.90;;;;;;4972725;28;20227;-85
2022/01/01 03:11:20;;;;;;;18.57;3.73;;;11.70;99.90;;;;;;4956242;28;20224;-86
2022/01/01 03:13:46;;;;;;;6.60;2.77;;;11.70;99.90;;;;;;4958015;28;20203;-86
2022/01/01 03:16:12;;;;;;;7.20;3.23;;;11.60;99.90;;;;;;4973366;28;20243;-85
2022/01/01 03:18:39;;;;;;;6.20;2.37;;;11.60;99.90;;;;;;4972963;28;20222;-86
2022/01/01 03:21:06;;;;;;;20.30;4.23;;;11.60;99.90;;;;;;4971921;28;20692;-86
2022/01/01 03:23:32;;;;;;;5.10;2.50;;;11.60;99.90;;;;;;4972132;28;20211;-85
2022/01/01 03:25:59;;;;;;;13.23;3.30;;;11.60;99.90;;;;;;4973056;28;20279;-86
2022/01/01 03:28:25;;;;;;;14.70;3.67;;;11.60;99.90;;;;;;4973608;28;20238;-85
2022/01/01 03:30:51;;;;;;;8.53;3.53;;;11.60;99.90;;;;;;4990224;28;20226;-87
2022/01/01 03:33:17;;;;;;;13.67;5.10;;;11.60;99.90;;;;;;4972667;28;20235;-86
2022/01/01 03:35:43;;;;;;;13.10;3.17;;;11.60;99.90;;;;;;4972464;28;20235;-86
2022/01/01 03:38:09;;;;;;;13.30;5.00;;;11.60;99.90;;;;;;4988701;28;20196;-85
2022/01/01 03:40:35;;;;;;;15.10;3.20;;;11.50;99.90;;;;;;4988228;28;20636;-86
2022/01/01 03:43:00;;;;;;;16.70;3.67;;;11.50;99.90;;;;;;4957115;28;20266;-86
2022/01/01 03:45:26;;;;;;;11.53;2.67;;;11.50;99.90;;;;;;4955452;28;20247;-86
2022/01/01 03:47:52;;;;;;;17.63;3.53;;;11.60;99.90;;;;;;4956308;28;20207;-85
2022/01/01 03:50:18;;;;;;;15.47;3.53;;;11.60;99.90;;;;;;4956895;28;20553;-86
2022/01/01 03:52:47;;;;;;;3.23;2.93;;;11.60;99.90;;;;;;4956469;28;20246;-90
2022/01/01 03:55:14;;;;;;;15.73;4.13;;;11.60;99.90;;;;;;4971933;28;20265;-86
2022/01/01 03:57:40;;;;;;;16.23;5.63;;;11.70;99.90;;;;;;4988867;28;20220;-86
2022/01/01 04:00:09;;;;;;;7.27;4.77;;;11.70;99.90;;;;;;4972795;28;20216;-86
2022/01/01 04:02:35;;;;;;;16.00;5.20;;;11.70;99.90;;;;;;4988392;28;20269;-87
2022/01/01 04:05:03;;;;;;;16.07;5.53;;;11.80;99.90;;;;;;4972746;28;20219;-86
2022/01/01 04:07:30;;;;;;;10.93;5.23;;;11.80;99.90;;;;;;4987702;28;20620;-86
2022/01/01 04:09:55;;;;;;;18.33;4.73;;;11.80;99.90;;;;;;4988063;28;20216;-86
2022/01/01 04:12:21;;;;;;;9.03;4.93;;;11.80;99.90;;;;;;4956199;28;20234;-85
2022/01/01 04:14:47;;;;;;;8.17;3.80;;;11.80;99.90;;;;;;4971788;28;20706;-87
2022/01/01 04:17:13;;;;;;;9.77;4.87;;;11.80;99.90;;;;;;4955110;28;20186;-86
2022/01/01 04:19:41;;;;;;;14.97;4.30;;;11.80;99.90;;;;;;4957031;28;20180;-85
2022/01/01 04:22:12;;;;;;;10.47;3.20;;;11.80;99.90;;;;;;4971330;28;20239;-86
2022/01/01 04:24:38;;;;;;;10.00;3.87;;;11.60;99.90;;;;;;5005402;28;20208;-85
2022/01/01 04:27:04;;;;;;;9.53;3.10;;;11.60;99.90;;;;;;4988387;28;20243;-86
2022/01/01 04:29:31;;;;;;;19.87;3.40;;;11.60;99.90;;;;;;4971050;28;20236;-88
2022/01/01 04:31:57;;;;;;;5.53;3.57;;;11.50;99.90;;;;;;4971059;28;20184;-86
2022/01/01 04:34:24;;;;;;;9.63;3.07;;;11.50;99.90;;;;;;4988313;28;20565;-86
2022/01/01 04:37:06;;;;;;;13.20;3.73;;;11.40;99.90;;;;;;4971675;28;20228;-86
2022/01/01 04:39:32;;;;;;;6.57;3.43;;;11.40;99.90;;;;;;4959999;28;20343;-88
2022/01/01 04:41:58;;;;;;;14.23;4.40;;;11.40;99.90;;;;;;4955052;28;20307;-86
2022/01/01 04:44:24;;;;;;;7.27;2.70;;;11.40;99.90;;;;;;4970081;28;20698;-86
2022/01/01 04:46:49;;;;;;;10.07;3.23;;;11.40;99.90;;;;;;4956436;28;20180;-90
2022/01/01 04:49:15;;;;;;;6.47;3.23;;;11.40;99.90;;;;;;4954775;28;20209;-87
2022/01/01 04:51:41;;;;;;;16.03;4.17;;;11.40;99.90;;;;;;4972793;28;20681;-86
2022/01/01 04:54:14;;;;;;;4.97;3.27;;;11.50;99.90;;;;;;4972567;28;20219;-87
2022/01/01 04:56:44;;;;;;;2.97;1.90;;;11.40;99.90;;;;;;4972466;28;20239;-87
2022/01/01 04:59:11;;;;;;;9.87;5.30;;;11.40;99.90;;;;;;4972899;28;20203;-86
2022/01/01 05:01:38;;;;;;;10.77;5.87;;;11.40;99.90;;;;;;4986691;28;20194;-86
2022/01/01 05:04:04;;;;;;;6.40;5.20;;;11.40;99.90;;;;;;4968854;28;20213;-85
2022/01/01 05:06:30;;;;;;;9.17;5.33;;;11.40;99.90;;;;;;4972049;28;20223;-88
2022/01/01 05:08:56;;;;;;;15.97;4.37;;;11.50;99.90;;;;;;4960263;28;21297;-87
2022/01/01 05:11:22;;;;;;;12.27;4.27;;;11.50;99.90;;;;;;4975346;28;20235;-87
2022/01/01 05:13:47;;;;;;;12.50;5.50;;;11.50;99.90;;;;;;4974779;28;20619;-87
2022/01/01 05:16:17;;;;;;;12.43;3.23;;;11.50;99.90;;;;;;4957762;28;20272;-86
2022/01/01 05:18:43;;;;;;;18.37;4.93;;;11.60;99.90;;;;;;4976280;28;20673;-87
2022/01/01 05:21:09;;;;;;;16.13;4.20;;;11.60;99.90;;;;;;4958185;28;20215;-86
2022/01/01 05:23:35;;;;;;;7.37;4.20;;;11.70;99.90;;;;;;4958262;28;20283;-91
2022/01/01 05:26:01;;;;;;;12.50;4.53;;;11.80;99.90;;;;;;4975400;28;20556;-86
2022/01/01 05:28:27;;;;;;;7.13;4.90;;;11.90;99.90;;;;;;4975342;28;20722;-86
2022/01/01 05:30:52;;;;;;;7.30;2.73;;;11.90;99.90;;;;;;4975251;28;20208;-86
2022/01/01 05:33:18;;;;;;;9.97;4.47;;;12.00;99.90;;;;;;4959321;28;20295;-88
2022/01/01 05:35:44;;;;;;;8.40;3.93;;;12.00;99.90;;;;;;4959218;28;20248;-89
2022/01/01 05:38:10;;;;;;;11.73;4.50;;;12.10;99.90;;;;;;4975600;28;21162;-86
2022/01/01 05:40:36;;;;;;;9.93;4.23;;;12.20;99.90;;;;;;4959514;28;20184;-90
2022/01/01 05:43:01;;;;;;;12.57;4.03;;;12.20;99.90;;;;;;4991609;28;20211;-86
2022/01/01 05:45:27;;;;;;;10.90;6.43;;;12.30;99.90;;;;;;4974063;28;20243;-86
2022/01/01 05:47:53;;;;;;;13.70;5.30;;;12.30;99.90;;;;;;4973402;28;20220;-87
2022/01/01 05:50:20;;;;;;;20.37;5.67;;;12.40;99.90;;;;;;4989748;28;20226;-91
2022/01/01 05:52:46;;;;;;;5.73;4.77;;;12.40;99.90;;;;;;4974932;28;20181;-85
2022/01/01 05:55:12;;;;;;;13.77;4.47;;;12.50;99.90;;;;;;4990913;28;20227;-87
2022/01/01 05:57:38;;;;;;;8.60;5.90;;;12.50;99.90;;;;;;5005873;28;20208;-86
2022/01/01 06:00:07;;;;;;;9.30;4.47;;;12.50;99.90;;;;;;4958423;28;20297;-89
2022/01/01 06:02:43;;;;;;;7.67;3.53;;;12.50;99.90;;;;;;4974203;28;20232;-90
2022/01/01 06:05:10;;;;;;;7.80;4.63;;;12.60;99.90;;;;;;4971815;28;20234;-85
2022/01/01 06:07:36;;;;;;;5.73;4.30;;;12.60;99.90;;;;;;4990965;28;20194;-85
2022/01/01 06:10:03;;;;;;;13.47;4.20;;;12.60;99.90;;;;;;4972727;28;20315;-86
2022/01/01 06:12:29;;;;;;;4.27;3.63;;;12.60;99.90;;;;;;4974368;28;20212;-86
2022/01/01 06:14:54;;;;;;;9.80;4.23;;;12.60;99.90;;;;;;4989808;28;20319;-88
2022/01/01 06:17:20;;;;;;;13.23;3.87;;;12.60;99.90;;;;;;4958720;28;20570;-90
2022/01/01 06:19:46;;;;;;;7.27;3.33;;;12.60;99.90;;;;;;4973603;28;20192;-86
2022/01/01 06:22:13;;;;;;;13.87;4.30;;;12.60;99.90;;;;;;4958310;28;20243;-87
2022/01/01 06:24:40;;;;;;;6.50;3.33;;;12.50;99.90;;;;;;4957456;28;20270;-86
2022/01/01 06:27:06;;;;;;;10.90;4.43;;;12.40;99.90;;;;;;4971162;28;20235;-86
2022/01/01 06:29:32;;;;;;;14.27;3.90;;;12.40;99.90;;;;;;4990336;28;20314;-88
2022/01/01 06:31:58;;;;;;;4.20;2.53;;;12.40;99.90;;;;;;4958533;28;20192;-85
2022/01/01 06:34:23;;;;;;;12.57;4.50;;;12.40;99.90;;;;;;4972717;28;20617;-86
2022/01/01 06:36:51;;;;;;;11.10;3.30;;;12.50;99.90;;;;;;4989390;28;20314;-86
2022/01/01 06:39:17;;;;;;;8.80;2.67;;;12.50;99.90;;;;;;4973566;28;20223;-86
2022/01/01 06:41:43;;;;;;;4.03;3.60;;;12.40;99.90;;;;;;4971775;28;20215;-86
2022/01/01 06:44:09;;;;;;;7.97;3.83;;;12.50;99.90;;;;;;4990224;28;20188;-87
2022/01/01 06:46:35;;;;;;;2.60;2.40;;;12.50;99.90;;;;;;4958535;28;20537;-85
2022/01/01 06:49:01;;;;;;;6.60;3.03;;;12.50;99.90;;;;;;4973930;28;20222;-88
2022/01/01 06:51:27;;;;;;;9.17;2.87;;;12.50;99.90;;;;;;4958093;28;20223;-87
2022/01/01 06:53:52;;;;;;;7.30;3.63;;;12.50;99.90;;;;;;4973552;28;20211;-86
2022/01/01 06:56:18;;;;;;;10.57;3.73;;;12.50;99.90;;;;;;4989687;28;20717;-86
2022/01/01 06:58:44;;;;;;;5.83;3.97;;;12.60;99.90;;;;;;4958009;28;20340;-85
2022/01/01 07:01:10;;;;;;;11.43;3.47;;;12.60;99.90;;;;;;4957599;28;20220;-87
2022/01/01 07:03:36;;;;;;;7.50;3.90;;;12.60;99.90;;;;;;4971830;28;20322;-86
2022/01/01 07:06:02;;;;;;;8.13;3.60;;;12.60;99.90;;;;;;4956700;28;20315;-86
2022/01/01 07:08:28;;;;;;;5.53;3.57;;;12.60;99.90;;;;;;4957243;28;20235;-89
2022/01/01 07:10:54;;;;;;;19.30;3.70;;;12.60;99.90;;;;;;4972933;28;20203;-89
2022/01/01 07:13:19;;;;;;;6.67;3.33;;;12.50;99.90;;;;;;4958813;28;20224;-86
2022/01/01 07:15:45;;;;;;;4.23;3.13;;;12.50;99.90;;;;;;4972982;28;20310;-87
2022/01/01 07:18:11;;;;;;;5.03;3.60;;;12.50;99.90;;;;;;4971054;28;20707;-86
2022/01/01 07:20:37;;;;;;;5.60;3.77;;;12.40;99.90;;;;;;4972481;28;20223;-88
2022/01/01 07:23:03;;;;;;;8.77;4.00;;;12.40;99.90;;;;;;4975147;28;20203;-87
2022/01/01 07:25:29;;;;;;;5.23;3.30;;;12.40;99.90;;;;;;4990445;28;20644;-88
2022/01/01 07:27:56;;;;;;;19.40;4.50;;;12.40;99.90;;;;;;4956304;28;20305;-86
2022/01/01 07:30:21;;;;;;;3.43;3.13;;;12.40;99.90;;;;;;4990707;28;20246;-89
2022/01/01 07:32:48;;;;;;;8.93;4.70;;;12.50;99.90;;;;;;4974412;28;20680;-89
2022/01/01 07:35:16;;;;;;;5.23;4.03;;;12.50;99.90;;;;;;4971904;28;20237;-89
2022/01/01 07:37:42;;;;;;;8.43;3.33;;;12.50;99.90;;;;;;4988976;28;20184;-89
2022/01/01 07:40:11;;;;;;;10.63;4.57;;;12.50;99.90;;;;;;4989503;28;20275;-91
2022/01/01 07:42:38;;;;;;;7.10;6.27;;;12.60;99.90;;;;;;4989134;28;20219;-91
2022/01/01 07:45:05;;;;;;;16.73;7.57;;;12.60;99.90;;;;;;4988947;28;20211;-90
2022/01/01 07:47:31;;;;;;;21.80;5.83;;;12.70;99.90;;;;;;4972530;28;20216;-89
2022/01/01 07:49:59;;;;;;;15.80;6.97;;;12.70;99.90;;;;;;4956371;28;20176;-89
2022/01/01 07:52:25;;;;;;;9.53;6.00;;;12.70;99.90;;;;;;4989664;28;20176;-88
2022/01/01 07:54:51;;;;;;;18.20;6.73;;;12.80;99.90;;;;;;4972071;28;20304;-89
2022/01/01 07:57:17;;;;;;;19.20;8.03;;;12.70;99.90;;;;;;4971567;28;20208;-89
2022/01/01 07:59:42;;;;;;;21.20;6.50;;;12.80;99.90;;;;;;4972254;28;20522;-89
2022/01/01 08:02:09;;;;;;;12.93;7.13;;;12.80;99.90;;;;;;4955913;28;20191;-89
2022/01/01 08:04:35;;;;;;;23.90;7.23;;;12.80;99.90;;;;;;4988522;28;20239;-90
2022/01/01 08:07:03;;;;;;;10.00;5.63;;;12.80;99.90;;;;;;4972535;28;20255;-88
2022/01/01 08:09:29;;;;;;;11.37;6.13;;;12.80;99.90;;;;;;4972441;28;20294;-90
2022/01/01 08:11:55;;;;;;;11.37;6.50;;;12.80;99.90;;;;;;4988193;28;20331;-90
2022/01/01 08:14:21;;;;;;;16.30;6.97;;;12.80;99.90;;;;;;4972749;28;20223;-89
2022/01/01 08:17:02;;;;;;;14.50;8.10;;;12.80;99.90;;;;;;4972935;28;20212;-91
2022/01/01 08:19:28;;;;;;;10.93;9.83;;;12.80;99.90;;;;;;4972899;28;20208;-90
2022/01/01 08:21:55;;;;;;;16.90;9.13;;;12.80;99.90;;;;;;4971250;28;20302;-90
2022/01/01 08:24:22;;;;;;;20.43;11.03;;;12.80;99.90;;;;;;5004178;28;20298;-89
2022/01/01 08:26:49;;;;;;;20.37;8.20;;;12.80;99.90;;;;;;4987159;28;20230;-90
2022/01/01 08:29:15;;;;;;;17.50;9.10;;;12.80;99.90;;;;;;4987463;28;20231;-88
2022/01/01 08:31:41;;;;;;;14.07;6.00;;;12.80;99.90;;;;;;4988986;28;20191;-88
2022/01/01 08:34:07;;;;;;;14.27;7.03;;;12.80;99.90;;;;;;4971728;28;20697;-88
2022/01/01 08:36:32;;;;;;;11.97;6.17;;;12.80;99.90;;;;;;4971419;28;20701;-89
2022/01/01 08:38:58;;;;;;;21.60;6.80;;;12.80;99.90;;;;;;4970936;28;20219;-88
2022/01/01 08:41:27;;;;;;;7.53;5.43;;;12.80;99.90;;;;;;4970683;28;20242;-89
2022/01/01 08:43:56;;;;;;;10.03;6.20;;;12.80;99.90;;;;;;4971181;28;20188;-88
2022/01/01 08:46:25;;;;;;;14.60;8.20;;;12.80;99.90;;;;;;4963713;28;20220;-87
2022/01/01 08:48:51;;;;;;;18.07;7.53;;;12.80;99.90;;;;;;4971619;28;20218;-88
2022/01/01 08:51:21;;;;;;;6.33;3.87;;;12.80;99.90;;;;;;4971385;28;20212;-90
2022/01/01 08:53:48;;;;;;;6.57;4.43;;;12.80;99.90;;;;;;4987002;28;20212;-90
2022/01/01 08:56:14;;;;;;;8.40;6.70;;;12.80;99.90;;;;;;4969958;28;20239;-89
2022/01/01 08:58:41;;;;;;;17.27;8.80;;;12.90;99.90;;;;;;4955097;28;20744;-88
2022/01/01 09:01:08;;;;;;;14.10;8.70;;;12.90;99.90;;;;;;5002300;28;20220;-89
2022/01/01 09:03:35;;;;;;;10.97;6.57;;;12.90;99.90;;;;;;4986557;28;20243;-90
2022/01/01 09:06:02;;;;;;;14.90;5.77;;;13.00;99.90;;;;;;4986374;28;20215;-88
2022/01/01 09:08:29;;;;;;;12.20;7.80;;;13.00;99.90;;;;;;4986818;28;20573;-89
2022/01/01 09:10:55;;;;;;;13.00;10.80;;;13.00;99.90;;;;;;4987237;28;20188;-90
2022/01/01 09:13:21;;;;;;;13.43;7.33;;;13.00;99.90;;;;;;4970668;28;20250;-89
2022/01/01 09:15:48;;;;;;;12.00;6.30;;;13.10;99.90;;;;;;4954360;28;20314;-89
2022/01/01 09:18:14;;;;;;;14.43;7.10;;;13.00;99.90;;;;;;4971234;28;20281;-88
2022/01/01 09:20:40;;;;;;;11.77;7.27;;;13.00;99.90;;;;;;4954575;28;21015;-88
2022/01/01 09:23:06;;;;;;;11.40;7.70;;;13.00;99.90;;;;;;4987443;28;20180;-89
2022/01/01 09:25:31;;;;;;;7.30;5.90;;;13.00;99.90;;;;;;4986944;28;20645;-89
2022/01/01 09:27:57;;;;;;;13.00;8.17;;;12.90;99.90;;;;;;4955207;28;20231;-88
2022/01/01 09:30:23;;;;;;;9.60;7.20;;;13.00;99.90;;;;;;4952237;28;20224;-89
2022/01/01 09:32:49;;;;;;;12.17;6.77;;;13.00;99.90;;;;;;4969209;28;20214;-89
2022/01/01 09:35:17;;;;;;;11.63;7.73;;;13.00;99.90;;;;;;4954280;28;20710;-89
2022/01/01 09:37:43;;;;;;;22.90;7.57;;;13.00;99.90;;;;;;4955588;28;21408;-89
2022/01/01 09:40:09;;;;;;;7.83;5.30;;;13.00;99.90;;;;;;4955028;28;20224;-88
2022/01/01 09:42:36;;;;;;;11.93;7.17;;;13.00;99.90;;;;;;4987249;28;20303;-88
2022/01/01 09:45:06;;;;;;;9.47;7.67;;;12.90;99.90;;;;;;4985655;28;20211;-88
2022/01/01 09:47:31;;;;;;;12.60;5.23;;;12.90;99.90;;;;;;4986581;28;20236;-90
2022/01/01 09:49:57;;;;;;;13.43;7.47;;;12.90;99.90;;;;;;4952677;28;20596;-88
2022/01/01 09:52:23;;;;;;;10.07;6.53;;;12.90;99.90;;;;;;4972361;28;20213;-95
2022/01/01 09:54:50;;;;;;;14.37;6.43;;;12.90;99.90;;;;;;4973002;28;20299;-88
2022/01/01 09:57:16;;;;;;;18.27;8.00;;;12.90;99.90;;;;;;4973865;28;20212;-91
2022/01/01 09:59:41;;;;;;;12.93;7.20;;;12.90;99.90;;;;;;4974815;28;20215;-88
2022/01/01 10:02:08;;;;;;;15.83;7.93;;;12.90;99.90;;;;;;4959979;28;20184;-89
2022/01/01 10:04:44;;;;;;;13.50;5.30;;;12.90;99.90;;;;;;4976412;28;20211;-88
2022/01/01 10:07:11;;;;;;;8.17;6.07;;;12.90;99.90;;;;;;4990495;28;20690;-88
2022/01/01 10:09:37;;;;;;;15.13;7.10;;;13.00;99.90;;;;;;4974706;28;20292;-88
2022/01/01 10:12:06;;;;;;;10.60;6.90;;;13.00;99.90;;;;;;4990677;28;20211;-88
2022/01/01 10:14:40;;;;;;;16.00;5.60;;;13.00;99.90;;;;;;4974218;28;20223;-87
2022/01/01 10:17:15;;;;;;;12.17;6.83;;;13.10;99.90;;;;;;4973805;28;20255;-89
2022/01/01 10:19:41;;;;;;;14.27;7.23;;;13.10;99.90;;;;;;4990517;28;20198;-90
2022/01/01 10:22:12;;;;;;;11.90;5.70;;;13.20;99.90;;;;;;4974687;28;20306;-88
2022/01/01 10:27:42;;;;;;;12.43;6.57;;;13.30;99.90;;;;;;4956865;28;20240;-90
2022/01/01 10:30:24;;;;;;;12.80;5.83;;;13.40;99.90;;;;;;4990971;28;20577;-90
2022/01/01 10:33:19;;;;;;;13.43;6.90;;;13.40;99.90;;;;;;5006222;28;20230;-89
2022/01/01 10:35:52;;;;;;;6.13;5.23;;;13.40;99.90;;;;;;4974686;28;20231;-88
2022/01/01 10:38:23;;;;;;;11.97;4.33;;;13.50;99.90;;;;;;5005717;28;20239;-89
2022/01/01 10:41:04;;;;;;;8.60;2.97;;;13.50;99.90;;;;;;4973151;28;20205;-88
2022/01/01 10:43:37;;;;;;;4.80;3.10;;;13.40;99.90;;;;;;4989863;28;20707;-87
2022/01/01 10:46:10;;;;;;;13.43;4.83;;;13.40;99.90;;;;;;4973124;28;20212;-89
2022/01/01 10:51:04;;;;;;;4.57;2.97;;;13.50;99.90;;;;;;4989284;28;20219;-88
2022/01/01 10:53:30;;;;;;;8.97;5.13;;;13.50;99.90;;;;;;4972307;28;20220;-90
2022/01/01 10:56:00;;;;;;;9.03;5.50;;;13.60;99.90;;;;;;4972485;28;20221;-88
2022/01/01 10:58:28;;;;;;;10.10;3.23;;;13.70;99.90;;;;;;4971260;28;20981;-88
2022/01/01 11:01:20;;;;;;;4.57;3.23;;;13.60;99.90;;;;;;4988537;28;20216;-90
2022/01/01 11:03:46;;;;;;;6.07;2.83;;;13.70;99.90;;;;;;4989341;28;20216;-89
2022/01/01 11:06:15;;;;;;;13.53;5.40;;;13.70;99.90;;;;;;4956989;28;20262;-88
2022/01/01 11:08:42;;;;;;;7.47;3.97;;;13.70;99.90;;;;;;4989289;28;20212;-89
2022/01/01 11:11:10;;;;;;;4.80;3.93;;;13.80;99.90;;;;;;4989334;28;20188;-88
2022/01/01 11:13:37;;;;;;;7.33;3.83;;;13.80;99.90;;;;;;4957537;28;20553;-88
2022/01/01 11:16:04;;;;;;;6.90;4.70;;;13.90;99.90;;;;;;4972357;28;20233;-87
2022/01/01 11:18:32;;;;;;;13.43;4.10;;;13.90;99.90;;;;;;4973359;28;20247;-89
2022/01/01 11:20:59;;;;;;;6.97;3.10;;;13.90;99.90;;;;;;4989330;28;20827;-88
2022/01/01 11:23:26;;;;;;;10.93;4.27;;;13.90;99.90;;;;;;4972288;28;20664;-88
2022/01/01 11:25:52;;;;;;;9.17;3.90;;;13.90;99.90;;;;;;4972745;28;20727;-88
2022/01/01 11:28:20;;;;;;;10.83;3.60;;;14.00;99.90;;;;;;4988386;28;20728;-89
2022/01/01 11:30:54;;;;;;;7.17;3.73;;;14.00;99.90;;;;;;4972477;28;20308;-88
2022/01/01 11:33:28;;;;;;;12.47;3.80;;;14.00;99.90;;;;;;4989991;28;20224;-88
2022/01/01 11:35:56;;;;;;;6.93;4.40;;;14.00;99.90;;;;;;4989616;28;20232;-87
2022/01/01 11:38:23;;;;;;;7.63;4.50;;;14.00;99.90;;;;;;4989980;28;20701;-90
2022/01/01 11:41:07;;;;;;;7.93;3.33;;;14.00;99.90;;;;;;4972316;28;21178;-89
2022/01/01 11:43:33;;;;;;;20.10;3.70;;;14.00;99.90;;;;;;4988828;28;20212;-88
2022/01/01 11:46:03;;;;;;;5.47;3.17;;;14.00;99.90;;;;;;4991483;28;20239;-89
2022/01/01 11:48:35;;;;;;;5.63;3.93;;;14.00;99.90;;;;;;5005508;28;20266;-89
2022/01/01 11:51:32;;;;;;;5.70;4.20;;;14.00;99.90;;;;;;4988362;28;20216;-88
2022/01/01 11:54:18;;;;;;;8.97;4.40;;;13.90;99.90;;;;;;5005922;28;20715;-88
2022/01/01 11:56:50;;;;;;;8.83;3.77;;;13.90;99.90;;;;;;4987548;28;20224;-88
2022/01/01 11:59:21;;;;;;;7.97;4.43;;;13.90;99.90;;;;;;4988702;28;20639;-88
2022/01/01 12:01:52;;;;;;;6.00;4.30;;;13.90;99.90;;;;;;4988664;28;20190;-88
2022/01/01 12:04:31;;;;;;;6.37;4.10;;;13.90;99.90;;;;;;4987726;28;20685;-88
2022/01/01 12:07:19;;;;;;;8.00;2.77;;;13.90;99.90;;;;;;5004258;28;20299;-89
2022/01/01 12:10:07;;;;;;;7.23;4.17;;;13.90;99.90;;;;;;4990240;28;20221;-89
2022/01/01 12:12:39;;;;;;;5.87;3.80;;;13.90;99.90;;;;;;5004142;28;20216;-90
2022/01/01 12:15:07;;;;;;;6.87;4.07;;;13.90;99.90;;;;;;4988057;28;20235;-88
2022/01/01 12:17:49;;;;;;;5.63;3.90;;;13.90;99.90;;;;;;4987879;28;20302;-89
2022/01/01 12:20:22;;;;;;;8.23;3.10;;;14.00;99.90;;;;;;4988814;28;20216;-88
2022/01/01 12:22:50;;;;;;;7.47;4.17;;;14.00;99.90;;;;;;4972862;28;20227;-88
2022/01/01 12:25:17;;;;;;;8.70;2.67;;;14.00;99.90;;;;;;4971044;28;20216;-89
2022/01/01 12:27:48;;;;;;;5.17;3.70;;;14.00;99.90;;;;;;4971509;28;20297;-89
2022/01/01 12:30:41;;;;;;;8.57;4.53;;;14.00;99.90;;;;;;4987944;28;21165;-88
2022/01/01 12:33:10;;;;;;;9.43;3.87;;;14.00;99.90;;;;;;5003963;28;20261;-89
2022/01/01 12:35:46;;;;;;;6.93;3.77;;;14.00;99.90;;;;;;4986782;28;20483;-89
2022/01/01 12:38:51;;;;;;;5.07;3.57;;;14.10;99.90;;;;;;5004356;28;20183;-88
2022/01/01 12:41:29;;;;;;;6.63;4.63;;;14.10;99.90;;;;;;4993400;28;20227;-89
2022/01/01 12:43:58;;;;;;;10.30;6.20;;;14.10;99.90;;;;;;4971040;28;20220;-88
2022/01/01 12:46:34;;;;;;;9.23;5.53;;;14.10;99.90;;;;;;4988965;28;20215;-87
2022/01/01 12:49:02;;;;;;;4.50;3.33;;;14.10;99.90;;;;;;4987273;28;20209;-89
2022/01/01 12:51:29;;;;;;;9.03;6.50;;;14.10;99.90;;;;;;4986731;28;20282;-86